Pagrindinis puslapis
METAR-TAF:

METAR-TAF

Oro uostai :

Mo i Rana, Norvegija

platuma: 66-22N, ilguma: 014-18E, Aukštis: 7 m

Dabartinis oras

Ataskaita buvo paskelbta 39 minutes, ne 12:20 UTC
Vėjas 3 kt iš Šiaurės
Temperatūra -4°C
Drėgmė 86%
Slėgis 993 hPa
Matomumas 10 km arba daugiau
Išsisklaidę debesys ne aukštis 6500 ft

METAR: ENRA 161220Z 01003KT 9999 SCT065 M04/M06 Q0993

Laikas: 13:59 (12:59 UTC)

Prognozė

Ataskaita buvo paskelbta 1 valandą ir 59 minutes, ne 11:00 UTC
Prognozė galioja nuo 16 metu 12 UTC su 16 metu 21 UTC
Vėjas 8 kt iš Rytų
Matomumas 10 km arba daugiau
Išsisklaidę debesys ne aukštis 4000 ft

TAF: ENRA 161100Z 1612/1621 09008KT 9999 SCT040

Orai ataskaitas ir orų prognozės (METAR, TAF).

turimą stotys yra geltonos ir raudonos taškus žemėlapyje.

Perkelti pele per norėdami pamatyti stoties vardą.

Tada spustelėkite, norėdami matyti oro stebėjimo ir prognozės.

Norėdami pakeisti žemėlapį: spustelėkite ant žalios mygtukų su juodo kryžiaus žemyn,; žalią mygtuką su brūkšneliu, jei norite nutolinti; arba žalių rodyklių gretimoms žemėlapius.


METAR-TAF: